Main page
METAR-TAF:

METAR-TAF

Airports :

Wittering, England

RAF Wittering

latitude: 52-37N, longitude: 000-28W, elevation: 84 m

Current weather observation

The report was made 27 minutes ago, at 06:50 UTC
Wind 11 kt from the West/Southwest
Temperature 12°C
Humidity 94%
Pressure 1013 hPa
Visibility 10 km or more
no clouds below 1500 m and no cumulonimbus

METAR: EGXT 190650Z 25011KT CAVOK 12/11 Q1013 BLU

Time: 08:17 (07:17 UTC)

Forecast

The report was made 1 hour and 33 minutes ago, at 05:44 UTC
Forecast valid from 19 at 06 UTC to 19 at 15 UTC
Wind 11 kt from the West/Southwest
Visibility 10 km or more
Few clouds at a height of 2500 ft
Becoming
from 19 at 07 UTC to 19 at 09 UTC
Wind 16 kt from the West with gusts up to 27 kt
Probability 30% :
Temporary
from 19 at 07 UTC to 19 at 09 UTC
Scattered clouds at a height of 2200 ft

TAF: EGXT 190544Z 1906/1915 24011KT 9999 FEW025 BECMG 1907/1909 26016G27KT PROB30 TEMPO 1907/1909 SCT022

Weather observations and forecasts of more than 4000 airports (METAR and TAF reports).

The available stations are represented by yellow and red dots on the map.

Hover mouse over dot to see the name of the station.

Then click to see weather observations and forecasts.

To change the map : click on the green buttons with a black cross to zoom in, on the green button with a dash to zoom out, or on the green arrows for adjacent maps.


METAR-TAF: